KCIC/CIC METAR and TAF weather

Enter ICAO airport designator
Station Type Date Time Source
KCIC METAR 2019/05/26 01:50 UTC NOAA

KCIC 260150Z 14012KT 10SM FEW060 SCT100 OVC200 22/05 A2969 RMK LAST


Station Type Date Time Source
KCIC Decoded METAR 2019/05/26 01:50 UTC NOAA

Chico Municipal , CA, United States (KCIC) 39-48N 121-51W
May 25, 2019 - 09:50 PM EDT / 2019.05.26 0150 UTC
Wind: from the SE (140 degrees) at 14 MPH (12 KT):0
Visibility: 10 mile(s):0
Sky conditions: overcast
Temperature: 71 F (22 C)
Dew Point: 41 F (5 C)
Relative Humidity: 32%
Pressure (altimeter): 29.69 in. Hg (1005 hPa)
ob: KCIC 260150Z 14012KT 10SM FEW060 SCT100 OVC200 22/05 A2969 RMK LAST
cycle: 2

Station Type Date Time Source
KCIC TAF UTC NOAA

Error!

Example: see airport list